Time;durP1;ratioP1;P1;durP2;ratioP2;P2;SDS_P1;SDS_P2;PMS_P1;PMS_P2;Temp;Humidity;BMP_temperature;BMP_pressure;BME280_temperature;BME280_humidity;BME280_pressure;Samples;Min_cycle;Max_cycle;Signal;HPM_P1;HPM_P2
2021/04/07 00:02:01;;;;;;;9.90;2.35;;;;;;;-0.12;97.26;96053.28;4958681;28;20559;-73
2021/04/07 00:04:29;;;;;;;2.53;1.73;;;;;;;-0.15;97.21;96051.72;4930947;28;20217;-74
2021/04/07 00:06:56;;;;;;;4.22;1.40;;;;;;;-0.13;97.95;96054.19;4943944;28;20650;-71
2021/04/07 00:09:25;;;;;;;1.88;1.35;;;;;;;-0.15;98.07;96054.28;4944439;28;20822;-73
2021/04/07 00:11:54;;;;;;;3.30;1.88;;;;;;;-0.20;97.50;96053.56;4947292;28;20194;-71
2021/04/07 00:14:24;;;;;;;7.88;1.85;;;;;;;-0.09;97.33;96049.81;4955593;28;20591;-72
2021/04/07 00:16:51;;;;;;;5.47;1.80;;;;;;;-0.16;96.48;96053.44;4949591;28;20534;-72
2021/04/07 00:19:18;;;;;;;6.57;2.03;;;;;;;-0.13;96.38;96060.19;4952084;28;20213;-72
2021/04/07 00:21:46;;;;;;;2.20;1.40;;;;;;;-0.15;95.85;96054.28;4959131;28;20188;-71
2021/04/07 00:24:13;;;;;;;2.80;1.80;;;;;;;-0.15;96.03;96056.84;4957332;28;20215;-70
2021/04/07 00:26:40;;;;;;;4.50;1.97;;;;;;;-0.22;95.72;96057.91;4929719;28;649681;-72
2021/04/07 00:29:08;;;;;;;5.68;1.80;;;;;;;-0.25;96.07;96061.38;4953169;28;20558;-72
2021/04/07 00:31:41;;;;;;;5.22;1.95;;;;;;;-0.25;95.94;96058.00;4962561;28;20300;-73
2021/04/07 00:34:08;;;;;;;5.68;2.45;;;;;;;-0.27;95.72;96063.16;4955308;28;20762;-73
2021/04/07 00:36:41;;;;;;;2.72;1.83;;;;;;;-0.32;95.91;96053.94;4954643;28;20531;-74
2021/04/07 00:39:12;;;;;;;3.03;2.17;;;;;;;-0.34;95.81;96064.19;4955048;28;20668;-72
2021/04/07 00:41:39;;;;;;;3.55;2.47;;;;;;;-0.36;95.62;96068.53;4942687;28;20507;-72
2021/04/07 00:44:06;;;;;;;5.45;2.38;;;;;;;-0.41;95.90;96069.50;4947874;28;20989;-73
2021/04/07 00:46:49;;;;;;;10.35;4.57;;;;;;;-0.35;95.84;96074.47;4953761;28;20818;-72
2021/04/07 00:49:17;;;;;;;6.50;2.20;;;;;;;-0.45;96.01;96070.50;4973775;28;20226;-74
2021/04/07 00:51:44;;;;;;;5.65;1.73;;;;;;;-0.46;96.15;96081.59;4953128;28;20524;-72
2021/04/07 00:54:12;;;;;;;6.35;2.05;;;;;;;-0.41;96.46;96074.63;4960508;28;20578;-72
2021/04/07 00:56:39;;;;;;;3.00;2.42;;;;;;;-0.45;95.95;96078.16;4960975;28;20194;-72
2021/04/07 00:59:06;;;;;;;3.60;2.45;;;;;;;-0.57;95.74;96074.22;4963954;28;20662;-70
2021/04/07 01:01:33;;;;;;;10.02;2.30;;;;;;;-0.56;95.72;96080.16;4974853;28;20537;-69
2021/04/07 01:04:02;;;;;;;6.10;2.78;;;;;;;-0.64;95.54;96072.72;4968974;28;20226;-72
2021/04/07 01:06:29;;;;;;;4.80;2.88;;;;;;;-0.62;95.44;96076.06;4948921;28;20539;-70
2021/04/07 01:08:56;;;;;;;6.65;3.30;;;;;;;-0.65;95.39;96075.31;4955006;28;20606;-72
2021/04/07 01:11:23;;;;;;;2.75;2.33;;;;;;;-0.61;95.16;96076.91;4960771;28;20580;-73
2021/04/07 01:13:50;;;;;;;4.75;2.65;;;;;;;-0.67;95.13;96082.19;4949180;28;20521;-74
2021/04/07 01:16:18;;;;;;;5.28;3.22;;;;;;;-0.72;94.49;96074.66;4968602;28;20185;-71
2021/04/07 01:18:45;;;;;;;6.70;3.58;;;;;;;-0.73;94.91;96078.09;4952376;28;20722;-72
2021/04/07 01:21:14;;;;;;;6.40;3.50;;;;;;;-0.74;94.89;96080.69;4947779;28;20526;-71
2021/04/07 01:23:44;;;;;;;5.65;3.47;;;;;;;-0.69;94.97;96083.91;4963984;28;20547;-73
2021/04/07 01:26:14;;;;;;;3.63;3.22;;;;;;;-0.75;95.07;96079.00;4967307;28;20283;-72
2021/04/07 01:28:48;;;;;;;6.50;3.10;;;;;;;-0.73;95.05;96078.09;4937339;28;21172;-72
2021/04/07 01:31:15;;;;;;;7.15;3.45;;;;;;;-0.69;95.26;96083.91;4961579;28;20446;-69
2021/04/07 01:33:42;;;;;;;5.57;3.28;;;;;;;-0.62;95.06;96086.28;4955840;28;20223;-71
2021/04/07 01:36:09;;;;;;;5.50;3.58;;;;;;;-0.64;94.72;96087.19;4955953;28;20619;-70
2021/04/07 01:38:37;;;;;;;6.03;3.08;;;;;;;-0.67;94.46;96082.19;4937980;28;20237;-71
2021/04/07 01:41:06;;;;;;;6.53;3.50;;;;;;;-0.76;94.50;96092.66;4942783;28;20206;-71
2021/04/07 01:43:34;;;;;;;6.13;3.47;;;;;;;-0.77;94.79;96085.84;4942330;28;20301;-72
2021/04/07 01:46:03;;;;;;;15.13;4.05;;;;;;;-0.76;94.63;96096.03;4952565;28;20204;-70
2021/04/07 01:48:31;;;;;;;6.75;3.15;;;;;;;-1.04;94.29;96066.16;4935567;28;20706;-72
2021/04/07 01:50:59;;;;;;;9.77;3.53;;;;;;;-0.77;93.94;96096.91;4964781;28;20658;-72
2021/04/07 01:53:26;;;;;;;10.15;3.13;;;;;;;-0.76;94.15;96101.13;4949530;28;20225;-71
2021/04/07 01:55:53;;;;;;;7.85;3.92;;;;;;;-0.71;93.48;96103.56;4959576;28;20655;-70
2021/04/07 01:58:37;;;;;;;5.60;3.38;;;;;;;-0.73;93.07;96097.69;4937052;28;20247;-72
2021/04/07 02:01:05;;;;;;;7.28;3.03;;;;;;;-0.71;93.36;96101.00;4942479;28;20271;-71
2021/04/07 02:03:32;;;;;;;4.22;2.70;;;;;;;-0.75;92.77;96102.00;4966217;28;20223;-71
2021/04/07 02:05:59;;;;;;;2.97;2.08;;;;;;;-0.75;92.63;96109.66;4955669;28;20619;-69
2021/04/07 02:08:27;;;;;;;3.38;2.92;;;;;;;-0.68;92.92;96111.16;4941704;28;20228;-70
2021/04/07 02:10:54;;;;;;;3.63;2.88;;;;;;;-0.64;92.74;96122.97;4955045;28;20263;-70
2021/04/07 02:13:21;;;;;;;5.85;3.92;;;;;;;-0.75;93.21;96125.81;4963630;28;20658;-70
2021/04/07 02:15:49;;;;;;;4.63;2.72;;;;;;;-0.69;93.75;96119.69;4969530;28;20581;-71
2021/04/07 02:18:17;;;;;;;4.82;3.88;;;;;;;-0.60;93.76;96127.94;4968387;28;20527;-72
2021/04/07 02:20:44;;;;;;;6.72;3.72;;;;;;;-0.82;93.92;96098.75;4965253;28;20186;-73
2021/04/07 02:23:11;;;;;;;6.65;3.63;;;;;;;-0.59;93.61;96126.25;4970305;28;20216;-70
2021/04/07 02:25:38;;;;;;;6.93;4.07;;;;;;;-0.56;93.71;96128.72;4966620;28;20684;-71
2021/04/07 02:28:05;;;;;;;9.85;3.83;;;;;;;-0.66;93.52;96137.50;4965070;28;20255;-71
2021/04/07 02:30:32;;;;;;;8.88;3.72;;;;;;;-0.62;93.78;96136.53;4962042;28;20559;-69
2021/04/07 02:33:01;;;;;;;9.05;4.35;;;;;;;-0.55;94.18;96143.16;4967466;28;20232;-67
2021/04/07 02:35:28;;;;;;;8.48;3.90;;;;;;;-0.54;93.81;96144.84;4965321;28;20625;-71
2021/04/07 02:37:57;;;;;;;12.00;4.43;;;;;;;-0.44;93.77;96143.72;4967339;28;20315;-72
2021/04/07 02:40:23;;;;;;;6.90;3.72;;;;;;;-0.51;93.58;96147.31;4983320;28;20634;-70
2021/04/07 02:42:50;;;;;;;6.85;3.95;;;;;;;-0.59;93.00;96146.69;4964338;28;20224;-72
2021/04/07 02:45:18;;;;;;;6.68;4.40;;;;;;;-0.64;93.62;96146.81;4966671;28;20689;-70
2021/04/07 02:47:45;;;;;;;10.23;4.35;;;;;;;-0.58;94.05;96158.56;4969298;28;20215;-71
2021/04/07 02:50:14;;;;;;;5.75;4.22;;;;;;;-0.56;93.71;96152.56;4966840;28;20629;-70
2021/04/07 02:52:42;;;;;;;7.47;3.75;;;;;;;-0.51;93.31;96157.53;4966847;28;20674;-68
2021/04/07 02:55:11;;;;;;;7.68;3.55;;;;;;;-0.59;93.85;96154.34;4968316;28;20559;-70
2021/04/07 02:57:38;;;;;;;4.38;2.45;;;;;;;-0.58;93.62;96163.69;4964089;28;20321;-69
2021/04/07 03:00:07;;;;;;;6.18;3.38;;;;;;;-0.53;93.84;96162.69;4948971;28;20280;-71
2021/04/07 03:02:35;;;;;;;5.72;3.42;;;;;;;-0.52;93.48;96163.53;4962835;28;20588;-69
2021/04/07 03:05:02;;;;;;;4.60;3.30;;;;;;;-0.61;93.38;96159.50;4948090;28;20639;-69
2021/04/07 03:07:30;;;;;;;5.40;3.17;;;;;;;-0.48;93.14;96175.34;4955233;28;20550;-69
2021/04/07 03:09:57;;;;;;;6.90;2.78;;;;;;;-0.50;93.40;96182.22;4956288;28;20211;-70
2021/04/07 03:12:24;;;;;;;6.65;2.58;;;;;;;-0.53;93.17;96187.41;4955525;28;20221;-69
2021/04/07 03:14:51;;;;;;;4.32;2.78;;;;;;;-0.43;93.24;96186.28;4964568;28;20187;-69
2021/04/07 03:17:18;;;;;;;8.50;2.47;;;;;;;-0.49;92.49;96183.88;4961303;28;20722;-69
2021/04/07 03:19:46;;;;;;;5.55;2.47;;;;;;;-0.52;92.81;96199.31;4970836;28;20189;-69
2021/04/07 03:22:13;;;;;;;4.80;2.63;;;;;;;-0.49;93.10;96199.22;4965933;28;20231;-69
2021/04/07 03:24:41;;;;;;;8.30;2.42;;;;;;;-0.49;93.02;96202.63;4951402;28;20711;-71
2021/04/07 03:27:09;;;;;;;3.92;2.17;;;;;;;-0.44;93.30;96199.94;4962952;28;20229;-70
2021/04/07 03:29:36;;;;;;;4.25;2.55;;;;;;;-0.51;93.58;96198.41;4963874;28;20231;-71
2021/04/07 03:32:04;;;;;;;6.40;2.58;;;;;;;-0.54;93.40;96201.06;4978421;28;20190;-69
2021/04/07 03:34:31;;;;;;;3.83;2.35;;;;;;;-0.52;93.79;96207.78;4962363;28;20691;-70
2021/04/07 03:36:58;;;;;;;6.00;2.95;;;;;;;-0.62;93.51;96206.34;4963334;28;20540;-69
2021/04/07 03:39:25;;;;;;;8.25;2.88;;;;;;;-0.64;93.93;96215.78;4966301;28;20192;-70
2021/04/07 03:41:53;;;;;;;10.52;2.65;;;;;;;-0.81;94.06;96187.25;4959720;28;20500;-69
2021/04/07 03:44:22;;;;;;;4.93;2.50;;;;;;;-0.67;94.19;96218.41;4963871;28;20898;-70
2021/04/07 03:46:53;;;;;;;4.57;2.60;;;;;;;-0.66;94.13;96221.81;4981639;28;20613;-69
2021/04/07 03:49:21;;;;;;;12.82;2.50;;;;;;;-0.76;94.30;96215.25;4963387;28;20217;-70
2021/04/07 03:51:48;;;;;;;3.53;2.28;;;;;;;-0.72;94.19;96227.91;4967753;28;20660;-69
2021/04/07 03:54:17;;;;;;;4.82;2.40;;;;;;;-0.74;94.46;96228.81;4964180;28;20245;-70
2021/04/07 03:56:44;;;;;;;4.97;2.90;;;;;;;-0.68;94.79;96228.69;4968264;28;20186;-69
2021/04/07 03:59:11;;;;;;;3.85;2.10;;;;;;;-0.68;94.54;96238.91;4982697;28;20231;-69
2021/04/07 04:01:38;;;;;;;2.30;2.10;;;;;;;-0.69;94.39;96232.94;4969866;28;20201;-69
2021/04/07 04:04:05;;;;;;;5.78;2.92;;;;;;;-0.65;94.26;96231.16;4966734;28;20251;-69
2021/04/07 04:06:32;;;;;;;3.85;2.60;;;;;;;-0.60;93.37;96230.16;4966046;28;20667;-69
2021/04/07 04:08:59;;;;;;;4.15;2.80;;;;;;;-0.58;93.55;96237.78;4969600;28;20683;-69
2021/04/07 04:11:26;;;;;;;3.22;2.22;;;;;;;-0.57;92.92;96237.75;4966217;28;20202;-69
2021/04/07 04:13:53;;;;;;;5.55;2.60;;;;;;;-0.56;92.29;96233.47;4969978;28;20249;-70
2021/04/07 04:16:22;;;;;;;5.43;2.45;;;;;;;-0.55;91.57;96240.25;4969117;28;20508;-70
2021/04/07 04:18:50;;;;;;;3.78;2.30;;;;;;;-0.48;91.60;96241.78;4972487;28;20766;-69
2021/04/07 04:21:17;;;;;;;8.13;2.67;;;;;;;-0.47;90.75;96253.69;4968650;28;20605;-70
2021/04/07 04:23:44;;;;;;;4.22;2.10;;;;;;;-0.48;90.45;96259.66;4971757;28;20811;-70
2021/04/07 04:26:11;;;;;;;3.90;2.20;;;;;;;-0.55;90.36;96266.66;4970940;28;20684;-70
2021/04/07 04:28:38;;;;;;;3.95;2.13;;;;;;;-0.59;90.65;96266.75;4967488;28;20247;-72
2021/04/07 04:31:06;;;;;;;15.10;2.47;;;;;;;-0.57;90.46;96273.53;4981316;28;20255;-70
2021/04/07 04:33:34;;;;;;;6.70;1.77;;;;;;;-0.49;90.29;96276.72;4968489;28;20233;-70
2021/04/07 04:36:01;;;;;;;2.75;2.03;;;;;;;-0.42;89.57;96287.63;4968455;28;20506;-71
2021/04/07 04:38:28;;;;;;;5.05;2.75;;;;;;;-0.43;88.94;96288.50;4957991;28;20676;-69
2021/04/07 04:40:55;;;;;;;2.50;1.95;;;;;;;-0.47;88.28;96289.47;4956703;28;20645;-73
2021/04/07 04:43:23;;;;;;;4.95;2.22;;;;;;;-0.49;88.98;96299.72;4968777;28;20759;-73
2021/04/07 04:45:50;;;;;;;3.08;1.98;;;;;;;-0.47;89.15;96294.59;4964841;28;20198;-72
2021/04/07 04:48:17;;;;;;;7.93;2.33;;;;;;;-0.57;88.93;96303.31;4967345;28;20252;-74
2021/04/07 04:50:45;;;;;;;2.92;1.83;;;;;;;-0.57;89.05;96303.31;4967543;28;20625;-73
2021/04/07 04:53:12;;;;;;;5.60;2.17;;;;;;;-0.53;88.90;96315.16;4966834;28;20223;-71
2021/04/07 04:55:39;;;;;;;6.00;1.77;;;;;;;-0.46;88.91;96314.97;4972885;28;20571;-72
2021/04/07 04:58:06;;;;;;;3.45;1.58;;;;;;;-0.46;87.73;96321.81;4947273;28;20228;-71
2021/04/07 05:00:33;;;;;;;3.15;1.60;;;;;;;-0.57;87.92;96319.50;4969806;28;20208;-68
2021/04/07 05:03:00;;;;;;;1.98;1.75;;;;;;;-0.70;87.38;96330.03;4968879;28;20825;-70
2021/04/07 05:05:27;;;;;;;5.90;1.70;;;;;;;-0.74;87.52;96331.00;4969230;28;20207;-70
2021/04/07 05:07:55;;;;;;;5.18;1.92;;;;;;;-0.73;87.79;96327.56;4958299;28;20655;-70
2021/04/07 05:10:22;;;;;;;3.97;1.70;;;;;;;-0.75;87.64;96332.69;4970202;28;20505;-71
2021/04/07 05:12:49;;;;;;;2.75;1.85;;;;;;;-0.77;86.99;96336.16;4966518;28;20883;-70
2021/04/07 05:15:17;;;;;;;9.95;2.17;;;;;;;-0.76;86.72;96337.84;4968764;28;20190;-70
2021/04/07 05:17:44;;;;;;;2.65;1.80;;;;;;;-0.83;86.69;96342.25;4969499;28;20218;-73
2021/04/07 05:20:13;;;;;;;9.43;1.83;;;;;;;-0.83;86.38;96352.47;4962806;28;20617;-73
2021/04/07 05:22:40;;;;;;;31.50;16.33;;;;;;;-0.83;86.30;96357.56;4967146;28;20297;-72
2021/04/07 05:25:09;;;;;;;9.32;3.65;;;;;;;-0.82;86.34;96366.09;4966893;28;20235;-72
2021/04/07 05:27:35;;;;;;;6.82;1.70;;;;;;;-0.72;85.73;96367.56;4965358;28;20247;-73
2021/04/07 05:30:04;;;;;;;10.27;2.38;;;;;;;-0.75;85.76;96365.91;4949258;28;20711;-73
2021/04/07 05:32:31;;;;;;;3.78;2.03;;;;;;;-0.80;86.63;96377.97;4969426;28;20667;-71
2021/04/07 05:34:58;;;;;;;6.38;2.75;;;;;;;-0.75;86.71;96380.41;4969480;28;20196;-69
2021/04/07 05:37:25;;;;;;;12.15;3.13;;;;;;;-0.74;86.29;96388.00;4964070;28;20220;-69
2021/04/07 05:39:53;;;;;;;13.10;3.40;;;;;;;-0.51;86.67;96390.06;4949393;28;20814;-69
2021/04/07 05:42:21;;;;;;;6.60;2.50;;;;;;;-0.45;86.05;96400.16;4969451;28;20556;-71
2021/04/07 05:44:48;;;;;;;6.28;2.45;;;;;;;-0.39;85.35;96400.03;4967110;28;20679;-70
2021/04/07 05:47:15;;;;;;;4.32;2.40;;;;;;;-0.42;85.12;96405.19;4964690;28;20250;-70
2021/04/07 05:49:42;;;;;;;3.85;2.38;;;;;;;-0.33;85.59;96410.94;4966376;28;20287;-69
2021/04/07 05:52:10;;;;;;;4.78;1.77;;;;;;;-0.16;85.33;96413.09;4967817;28;20193;-69
2021/04/07 05:54:37;;;;;;;4.00;1.90;;;;;;;-0.17;84.60;96421.66;4963965;28;20757;-69
2021/04/07 05:57:05;;;;;;;5.68;1.80;;;;;;;-0.17;84.50;96417.38;4969386;28;20830;-69
2021/04/07 05:59:34;;;;;;;5.03;2.10;;;;;;;-0.31;84.08;96410.91;4967228;28;20623;-72
2021/04/07 06:02:02;;;;;;;5.47;1.85;;;;;;;-0.32;84.72;96434.78;4974094;28;20936;-72
2021/04/07 06:04:29;;;;;;;4.95;2.40;;;;;;;-0.31;84.75;96426.25;4958706;28;20634;-73
2021/04/07 06:06:56;;;;;;;6.32;2.20;;;;;;;-0.26;84.36;96442.28;4958401;28;20622;-72
2021/04/07 06:09:23;;;;;;;4.53;1.90;;;;;;;-0.07;84.02;96442.69;4961130;28;20579;-71
2021/04/07 06:11:50;;;;;;;12.10;2.58;;;;;;;0.17;83.46;96438.72;4965837;28;20586;-70
2021/04/07 06:14:19;;;;;;;3.90;2.00;;;;;;;0.31;82.34;96446.88;4967661;28;20523;-72
2021/04/07 06:16:47;;;;;;;2.45;1.60;;;;;;;0.20;82.26;96446.28;4970510;28;20613;-72
2021/04/07 06:19:14;;;;;;;6.82;2.15;;;;;;;0.33;82.35;96448.53;4969279;28;20228;-71
2021/04/07 06:21:42;;;;;;;5.50;1.42;;;;;;;0.59;81.40;96450.44;4969315;28;20190;-73
2021/04/07 06:24:10;;;;;;;3.35;1.33;;;;;;;0.57;78.83;96435.09;4967465;28;20552;-68
2021/04/07 06:26:38;;;;;;;2.75;1.63;;;;;;;0.62;79.09;96471.69;4964956;28;20252;-72
2021/04/07 06:29:05;;;;;;;4.07;1.85;;;;;;;0.50;78.52;96460.88;4962357;28;20624;-69
2021/04/07 06:31:32;;;;;;;7.65;2.30;;;;;;;0.64;78.71;96459.66;4966064;28;20531;-69
2021/04/07 06:34:00;;;;;;;3.67;1.55;;;;;;;0.65;77.93;96463.91;4963904;28;20229;-70
2021/04/07 06:36:27;;;;;;;2.28;1.38;;;;;;;0.88;77.33;96468.44;4966644;28;20689;-69
2021/04/07 06:38:54;;;;;;;1.95;1.30;;;;;;;1.04;76.12;96470.53;4957978;28;20222;-69
2021/04/07 06:41:21;;;;;;;3.25;1.42;;;;;;;1.00;76.50;96471.50;4955432;28;20224;-68
2021/04/07 06:43:51;;;;;;;5.22;1.73;;;;;;;1.09;75.45;96484.06;4959104;28;20658;-70
2021/04/07 06:46:21;;;;;;;7.30;3.03;;;;;;;1.33;75.36;96491.06;4966371;28;20550;-70
2021/04/07 06:48:48;;;;;;;2.63;1.20;;;;;;;1.25;72.33;96493.00;4964948;28;20220;-71
2021/04/07 06:51:18;;;;;;;5.60;1.45;;;;;;;1.58;73.27;96488.66;4978823;28;20704;-70
2021/04/07 06:53:49;;;;;;;11.02;1.35;;;;;;;1.94;71.55;96495.25;4965627;28;20585;-71
2021/04/07 06:56:17;;;;;;;2.17;1.02;;;;;;;2.17;71.28;96488.53;4967409;28;20515;-70
2021/04/07 06:58:44;;;;;;;1.85;1.27;;;;;;;2.52;69.73;96498.53;4965554;28;20646;-70
2021/04/07 07:01:12;;;;;;;2.80;2.15;;;;;;;2.74;67.47;96499.50;4963291;28;20530;-70
2021/04/07 07:03:40;;;;;;;4.65;1.35;;;;;;;2.82;67.44;96510.38;4972889;28;20647;-71
2021/04/07 07:06:08;;;;;;;7.88;1.40;;;;;;;2.69;67.70;96509.09;4964404;28;20210;-70
2021/04/07 07:08:41;;;;;;;10.00;5.07;;;;;;;2.23;69.26;96519.16;4963760;28;20960;-70
2021/04/07 07:11:13;;;;;;;8.65;2.85;;;;;;;2.27;68.77;96517.34;4969682;28;20294;-70
2021/04/07 07:13:41;;;;;;;1.80;1.20;;;;;;;2.80;68.89;96524.97;4963762;28;20708;-71
2021/04/07 07:16:10;;;;;;;8.90;2.53;;;;;;;3.54;66.33;96528.38;4963757;28;20183;-71
2021/04/07 07:18:43;;;;;;;6.57;1.88;;;;;;;3.39;66.77;96522.94;4972650;28;20213;-73
2021/04/07 07:21:15;;;;;;;4.60;1.85;;;;;;;2.81;67.35;96520.69;4963225;28;20186;-73
2021/04/07 07:23:47;;;;;;;3.63;1.20;;;;;;;2.33;69.32;96538.50;4966544;28;20226;-72
2021/04/07 07:26:15;;;;;;;9.07;1.38;;;;;;;1.55;71.34;96548.53;4964223;28;20274;-73
2021/04/07 07:28:45;;;;;;;7.85;1.50;;;;;;;1.28;73.88;96546.75;4966836;28;20526;-73
2021/04/07 07:31:21;;;;;;;8.05;1.48;;;;;;;1.13;74.03;96562.53;4960282;28;20194;-71
2021/04/07 07:33:48;;;;;;;7.57;1.70;;;;;;;0.88;75.18;96555.53;4959361;28;20563;-72
2021/04/07 07:36:16;;;;;;;3.00;1.20;;;;;;;0.71;76.65;96570.44;4947752;28;20190;-70
2021/04/07 07:38:51;;;;;;;4.13;1.10;;;;;;;0.64;77.33;96571.47;4964093;28;20716;-70
2021/04/07 07:41:21;;;;;;;7.70;1.90;;;;;;;0.65;78.50;96576.56;4969319;28;20520;-72
2021/04/07 07:43:48;;;;;;;2.00;1.00;;;;;;;0.82;77.65;96576.97;4970496;28;20654;-71
2021/04/07 07:46:20;;;;;;;2.78;1.90;;;;;;;1.23;77.65;96586.19;4966285;28;20206;-72
2021/04/07 07:48:49;;;;;;;2.85;1.50;;;;;;;1.85;75.11;96581.03;4969502;28;20774;-73
2021/04/07 07:51:18;;;;;;;3.58;1.50;;;;;;;2.38;73.76;96585.44;4973471;28;20257;-71
2021/04/07 07:53:49;;;;;;;2.33;1.75;;;;;;;2.49;70.56;96582.53;4970803;28;20226;-72
2021/04/07 07:56:18;;;;;;;11.88;2.40;;;;;;;2.46;71.24;96580.91;4964706;28;20207;-72
2021/04/07 07:58:47;;;;;;;6.80;3.08;;;;;;;2.74;69.94;96584.28;4967522;28;20242;-72
2021/04/07 08:01:41;;;;;;;2.45;1.30;;;;;;;2.86;70.47;96583.88;4978630;28;20599;-71
2021/04/07 08:04:09;;;;;;;1.98;1.13;;;;;;;2.66;67.99;96581.09;4971344;28;20248;-71
2021/04/07 08:06:36;;;;;;;4.55;1.20;;;;;;;2.09;71.01;96593.16;4971173;28;20681;-72
2021/04/07 08:09:05;;;;;;;2.35;1.02;;;;;;;1.65;72.12;96598.72;4971027;28;20345;-73
2021/04/07 08:11:34;;;;;;;4.20;0.98;;;;;;;1.63;72.80;96597.06;4980963;28;20699;-72
2021/04/07 08:14:04;;;;;;;5.18;1.00;;;;;;;1.60;73.16;96603.13;4971322;28;20276;-73
2021/04/07 08:16:32;;;;;;;2.00;1.30;;;;;;;1.45;73.47;96607.81;4968681;28;20554;-71
2021/04/07 08:19:02;;;;;;;2.13;1.10;;;;;;;1.59;74.09;96611.69;4970334;28;20218;-72
2021/04/07 08:21:30;;;;;;;3.17;1.52;;;;;;;1.55;73.49;96604.97;4962010;28;20273;-71
2021/04/07 08:23:59;;;;;;;2.03;1.25;;;;;;;1.77;74.96;96608.63;4966116;28;20234;-71
2021/04/07 08:26:28;;;;;;;9.70;1.27;;;;;;;2.17;74.64;96606.63;4959407;28;20590;-71
2021/04/07 08:28:55;;;;;;;9.73;1.73;;;;;;;1.95;73.76;96630.34;4957022;28;20563;-71
2021/04/07 08:31:24;;;;;;;4.65;1.35;;;;;;;1.67;74.49;96625.16;4958447;28;20523;-73
2021/04/07 08:33:54;;;;;;;5.55;2.47;;;;;;;1.20;77.67;96633.22;4964951;28;20676;-73
2021/04/07 08:36:24;;;;;;;6.45;1.52;;;;;;;0.93;80.08;96636.50;4949233;28;20627;-73
2021/04/07 08:39:00;;;;;;;3.15;1.85;;;;;;;0.80;82.28;96642.78;4957376;28;20331;-72
2021/04/07 08:41:31;;;;;;;6.50;2.40;;;;;;;0.74;83.80;96627.56;4959337;28;20555;-73
2021/04/07 08:44:03;;;;;;;10.32;2.58;;;;;;;0.76;85.50;96638.59;4943252;28;20218;-72
2021/04/07 08:46:40;;;;;;;3.95;2.05;;;;;;;0.82;86.33;96646.13;4943860;28;20504;-73
2021/04/07 08:49:08;;;;;;;6.18;3.35;;;;;;;0.62;86.65;96648.34;4965247;28;20233;-71
2021/04/07 08:51:36;;;;;;;4.97;2.30;;;;;;;0.63;88.57;96655.13;4943123;28;20634;-73
2021/04/07 08:54:04;;;;;;;4.43;2.58;;;;;;;0.61;87.13;96648.38;4933973;28;20241;-72
2021/04/07 08:56:34;;;;;;;2.92;1.63;;;;;;;0.61;86.69;96646.63;4935200;28;20195;-73
2021/04/07 08:59:03;;;;;;;7.45;2.40;;;;;;;0.68;86.47;96648.19;4956981;28;20233;-72
2021/04/07 09:01:33;;;;;;;7.15;2.38;;;;;;;0.89;85.35;96652.78;4949952;28;20197;-73
2021/04/07 09:04:09;;;;;;;7.65;2.50;;;;;;;1.01;84.93;96660.19;4958339;28;20264;-73
2021/04/07 09:06:36;;;;;;;8.23;2.58;;;;;;;1.22;82.52;96656.25;4951318;28;21028;-72
2021/04/07 09:09:05;;;;;;;6.22;2.47;;;;;;;1.47;83.37;96657.34;4964264;28;20599;-72
2021/04/07 09:11:36;;;;;;;3.90;2.13;;;;;;;1.80;82.60;96666.69;4953666;28;20701;-72
2021/04/07 09:14:05;;;;;;;2.20;1.40;;;;;;;1.67;79.87;96666.19;4950108;28;20608;-71
2021/04/07 09:16:35;;;;;;;3.67;1.13;;;;;;;1.73;79.83;96671.16;4959085;28;20198;-71
2021/04/07 09:19:20;;;;;;;5.07;2.88;;;;;;;2.34;80.69;96671.13;4952376;28;20318;-71
2021/04/07 09:21:55;;;;;;;5.03;2.30;;;;;;;2.19;77.38;96651.03;4956135;28;20194;-70
2021/04/07 09:24:28;;;;;;;5.45;2.45;;;;;;;2.32;77.18;96661.78;4955836;28;20218;-70
2021/04/07 09:27:04;;;;;;;6.95;2.50;;;;;;;2.30;75.93;96659.28;4966458;28;20543;-74
2021/04/07 09:29:31;;;;;;;7.80;2.00;;;;;;;2.20;75.33;96655.28;4936903;28;20217;-73
2021/04/07 09:31:58;;;;;;;3.65;1.98;;;;;;;2.10;73.94;96648.75;4941868;28;20217;-72
2021/04/07 09:34:27;;;;;;;11.32;2.05;;;;;;;2.07;76.17;96648.81;4957812;28;20245;-71
2021/04/07 09:36:55;;;;;;;3.72;1.45;;;;;;;2.14;75.20;96658.03;4955776;28;20507;-71
2021/04/07 09:39:23;;;;;;;4.90;2.13;;;;;;;2.28;76.03;96661.03;4935691;28;20300;-72
2021/04/07 09:41:54;;;;;;;2.85;1.88;;;;;;;2.74;73.54;96663.94;4967035;28;20512;-73
2021/04/07 09:44:22;;;;;;;3.42;1.55;;;;;;;2.70;72.23;96658.91;4958115;28;20219;-73
2021/04/07 09:46:51;;;;;;;6.00;1.52;;;;;;;2.33;73.32;96672.03;4943596;28;20210;-71
2021/04/07 09:49:19;;;;;;;3.05;1.55;;;;;;;1.79;73.86;96660.75;4959112;28;20563;-72
2021/04/07 09:51:50;;;;;;;4.65;1.65;;;;;;;1.87;75.57;96674.19;4978680;28;20586;-73
2021/04/07 09:54:21;;;;;;;5.60;1.30;;;;;;;1.79;76.21;96675.28;4949037;28;20594;-71
2021/04/07 09:56:57;;;;;;;3.60;1.77;;;;;;;1.82;75.83;96673.47;4927172;28;21100;-72
2021/04/07 09:59:39;;;;;;;2.85;1.38;;;;;;;1.67;75.88;96681.59;4958293;28;20546;-73
2021/04/07 10:02:09;;;;;;;7.82;1.77;;;;;;;1.62;75.77;96683.41;4949956;28;20197;-72
2021/04/07 10:04:37;;;;;;;13.02;3.28;;;;;;;1.69;76.31;96689.25;4961077;28;20191;-71
2021/04/07 10:07:13;;;;;;;1.70;1.17;;;;;;;1.49;75.27;96687.16;4948999;28;20748;-71
2021/04/07 10:09:43;;;;;;;1.88;1.10;;;;;;;1.48;76.44;96685.50;4937914;28;20586;-71
2021/04/07 10:12:11;;;;;;;4.72;1.92;;;;;;;1.59;76.16;96693.75;4948857;28;20515;-72
2021/04/07 10:14:46;;;;;;;6.70;2.08;;;;;;;1.54;76.52;96697.34;4950234;28;20211;-71
2021/04/07 10:17:17;;;;;;;2.00;1.20;;;;;;;1.70;76.81;96696.06;4940929;28;20182;-72
2021/04/07 10:19:47;;;;;;;1.10;0.90;;;;;;;1.78;75.00;96694.94;4941490;28;20187;-71
2021/04/07 10:22:20;;;;;;;13.85;2.00;;;;;;;1.73;75.42;96691.69;4929281;28;20209;-71
2021/04/07 10:24:48;;;;;;;6.13;1.33;;;;;;;1.83;74.88;96698.25;4940834;28;20753;-72
2021/04/07 10:27:20;;;;;;;2.45;1.52;;;;;;;2.08;75.27;96696.72;4961265;28;20301;-71
2021/04/07 10:29:49;;;;;;;4.38;1.60;;;;;;;2.11;74.06;96691.50;4968244;28;20191;-73
2021/04/07 10:32:17;;;;;;;8.30;1.55;;;;;;;2.14;75.03;96686.25;4950019;28;20713;-71
2021/04/07 10:34:46;;;;;;;1.77;1.02;;;;;;;2.10;73.62;96692.38;4957483;28;20498;-72
2021/04/07 10:37:17;;;;;;;2.15;1.38;;;;;;;2.10;74.50;96692.38;4981624;28;20727;-72
2021/04/07 10:39:45;;;;;;;3.25;1.58;;;;;;;2.51;74.51;96689.44;4965463;28;20205;-73
2021/04/07 10:42:17;;;;;;;4.30;1.75;;;;;;;2.85;73.26;96687.56;4944061;28;20502;-72
2021/04/07 10:44:45;;;;;;;8.07;2.92;;;;;;;3.17;72.13;96687.38;4956143;28;20519;-73
2021/04/07 10:47:19;;;;;;;4.07;1.23;;;;;;;3.08;69.73;96682.53;4965256;28;20261;-72
2021/04/07 10:49:56;;;;;;;4.85;1.48;;;;;;;2.89;70.03;96686.59;4960497;28;20630;-72
2021/04/07 10:52:31;;;;;;;3.65;1.27;;;;;;;2.80;71.49;96681.72;4960520;28;20545;-74
2021/04/07 10:55:06;;;;;;;7.22;2.05;;;;;;;2.80;69.26;96678.31;4971476;28;20193;-72
2021/04/07 10:57:35;;;;;;;8.52;2.10;;;;;;;3.13;69.71;96678.13;4949295;28;20615;-73
2021/04/07 11:00:06;;;;;;;1.35;0.93;;;;;;;3.25;68.81;96684.59;4942619;28;20662;-72
2021/04/07 11:02:45;;;;;;;9.93;1.95;;;;;;;3.11;68.41;96685.03;4946656;28;20221;-71
2021/04/07 11:05:18;;;;;;;4.55;1.60;;;;;;;3.18;65.36;96663.38;4961307;28;20178;-73
2021/04/07 11:07:45;;;;;;;4.80;1.55;;;;;;;3.41;68.02;96666.03;4950797;28;20706;-71
2021/04/07 11:10:15;;;;;;;3.97;1.58;;;;;;;3.79;66.13;96682.75;4953285;28;20652;-71
2021/04/07 11:12:43;;;;;;;9.02;1.60;;;;;;;3.76;66.41;96668.25;4939407;28;20221;-71
2021/04/07 11:15:14;;;;;;;6.03;1.90;;;;;;;3.95;66.13;96671.88;4974203;28;20515;-71
2021/04/07 11:17:52;;;;;;;3.85;1.30;;;;;;;4.24;63.20;96671.69;4945082;28;20509;-71
2021/04/07 11:20:20;;;;;;;4.28;1.60;;;;;;;4.81;62.07;96666.94;4958280;28;20228;-72
2021/04/07 11:22:47;;;;;;;2.20;1.33;;;;;;;5.55;60.40;96667.38;4950056;28;20209;-71
2021/04/07 11:25:15;;;;;;;5.10;1.70;;;;;;;5.44;58.94;96654.91;4955568;28;20511;-71
2021/04/07 11:27:42;;;;;;;7.18;1.70;;;;;;;4.48;58.38;96660.47;4949860;28;20218;-71
2021/04/07 11:30:11;;;;;;;2.17;1.00;;;;;;;3.85;60.77;96656.81;4962601;28;20501;-73
2021/04/07 11:32:42;;;;;;;2.70;1.60;;;;;;;3.69;61.99;96666.81;4967278;28;20711;-74
2021/04/07 11:35:34;;;;;;;4.70;1.65;;;;;;;3.55;63.60;96668.16;4953524;28;20220;-72
2021/04/07 11:38:03;;;;;;;5.72;2.55;;;;;;;3.68;63.77;96677.97;4970436;28;20224;-70
2021/04/07 11:41:02;;;;;;;14.00;2.15;;;;;;;3.71;63.20;96683.03;4969872;28;20578;-71
2021/04/07 11:43:33;;;;;;;6.38;1.20;;;;;;;3.74;63.22;96672.63;4956539;28;20580;-70
2021/04/07 11:46:00;;;;;;;5.72;1.70;;;;;;;3.62;63.51;96675.63;4960561;28;20524;-72